createdAt,value
2018-03-02T00:01:02.441Z,18.90
2018-03-02T00:02:06.512Z,18.50
2018-03-02T00:03:10.848Z,19.95
2018-03-02T00:04:15.160Z,20.30
2018-03-02T00:05:19.090Z,18.23
2018-03-02T00:06:23.064Z,19.05
2018-03-02T00:07:27.115Z,19.80
2018-03-02T00:08:31.324Z,20.50
2018-03-02T00:09:36.086Z,23.35
2018-03-02T00:10:40.379Z,20.00
2018-03-02T00:11:44.326Z,20.30
2018-03-02T00:12:48.999Z,22.75
2018-03-02T00:13:53.511Z,21.37
2018-03-02T00:14:57.847Z,18.90
2018-03-02T00:16:01.726Z,19.02
2018-03-02T00:17:05.664Z,18.70
2018-03-02T00:18:10.319Z,17.40
2018-03-02T00:19:14.207Z,16.80
2018-03-02T00:20:18.925Z,17.10
2018-03-02T00:21:23.019Z,16.80
2018-03-02T00:22:26.948Z,18.40
2018-03-02T00:23:30.852Z,17.00
2018-03-02T00:24:35.159Z,17.52
2018-03-02T00:25:39.047Z,17.87
2018-03-02T00:26:42.928Z,16.08
2018-03-02T00:27:46.838Z,17.27
2018-03-02T00:28:50.708Z,17.20
2018-03-02T00:29:54.648Z,18.80
2018-03-02T00:30:58.464Z,16.90
2018-03-02T00:32:02.521Z,18.65
2018-03-02T00:33:06.734Z,16.90
2018-03-02T00:34:10.750Z,16.65
2018-03-02T00:35:14.691Z,17.77
2018-03-02T00:36:19.294Z,17.23
2018-03-02T00:37:23.996Z,17.75
2018-03-02T00:38:27.890Z,16.73
2018-03-02T00:39:32.161Z,16.85
2018-03-02T00:40:36.206Z,17.50
2018-03-02T00:41:40.191Z,18.77
2018-03-02T00:42:43.990Z,18.00
2018-03-02T00:43:47.919Z,17.52
2018-03-02T00:44:52.566Z,17.37
2018-03-02T00:45:57.505Z,17.92
2018-03-02T00:47:02.063Z,17.53
2018-03-02T00:48:06.724Z,18.10
2018-03-02T00:49:11.379Z,17.62
2018-03-02T00:50:15.459Z,17.60
2018-03-02T00:51:19.919Z,19.20
2018-03-02T00:52:24.474Z,17.50
2018-03-02T00:53:30.044Z,18.17
2018-03-02T00:54:34.209Z,17.35
2018-03-02T00:55:38.522Z,17.25
2018-03-02T00:56:42.781Z,17.05
2018-03-02T00:57:47.874Z,17.05
2018-03-02T00:58:51.947Z,18.20
2018-03-02T00:59:56.201Z,18.10
2018-03-02T01:01:00.993Z,17.40
2018-03-02T01:02:05.056Z,18.00
2018-03-02T01:03:10.142Z,17.87
2018-03-02T01:04:14.317Z,17.70
2018-03-02T01:05:18.304Z,17.50
2018-03-02T01:06:22.145Z,18.77
2018-03-02T01:07:26.801Z,17.87
2018-03-02T01:08:30.789Z,18.17
2018-03-02T01:09:34.950Z,17.58
2018-03-02T01:10:39.232Z,17.33
2018-03-02T01:11:43.227Z,19.67
2018-03-02T01:12:47.263Z,17.83
2018-03-02T01:13:52.060Z,17.85
2018-03-02T01:14:56.415Z,18.75
2018-03-02T01:16:01.213Z,18.85
2018-03-02T01:17:06.054Z,19.10
2018-03-02T01:18:10.321Z,17.77
2018-03-02T01:19:14.452Z,17.35
2018-03-02T01:20:19.263Z,18.12
2018-03-02T01:21:24.076Z,17.95
2018-03-02T01:22:29.380Z,18.27
2018-03-02T01:23:33.465Z,17.80
2018-03-02T01:24:37.801Z,18.80
2018-03-02T01:25:41.818Z,18.60
2018-03-02T01:26:46.673Z,18.00
2018-03-02T01:27:51.034Z,18.08
2018-03-02T01:28:56.493Z,18.35
2018-03-02T01:30:01.365Z,17.87
2018-03-02T01:31:05.496Z,17.42
2018-03-02T01:32:09.589Z,17.83
2018-03-02T01:33:13.944Z,18.15
2018-03-02T01:34:18.358Z,18.52
2018-03-02T01:35:22.456Z,18.00
2018-03-02T01:36:26.756Z,18.08
2018-03-02T01:37:30.625Z,18.48
2018-03-02T01:38:35.294Z,19.37
2018-03-02T01:39:39.542Z,18.73
2018-03-02T01:40:43.964Z,19.42
2018-03-02T01:41:48.092Z,17.60
2018-03-02T01:42:51.989Z,18.48
2018-03-02T01:43:56.243Z,19.02
2018-03-02T01:45:00.202Z,17.50
2018-03-02T01:46:04.295Z,18.65
2018-03-02T01:47:08.227Z,19.35
2018-03-02T01:48:12.124Z,19.27
2018-03-02T01:49:16.225Z,18.90
2018-03-02T01:50:20.329Z,18.80
2018-03-02T01:51:33.622Z,18.00
2018-03-02T01:52:37.721Z,19.40
2018-03-02T01:53:41.634Z,19.35
2018-03-02T01:54:45.517Z,18.60
2018-03-02T01:55:49.441Z,18.55
2018-03-02T01:56:53.508Z,18.55
2018-03-02T01:57:57.841Z,18.10
2018-03-02T01:59:01.956Z,19.17
2018-03-02T02:00:06.055Z,18.55
2018-03-02T02:01:09.915Z,18.10
2018-03-02T02:02:13.981Z,20.65
2018-03-02T02:03:18.184Z,20.00
2018-03-02T02:04:22.644Z,19.33
2018-03-02T02:05:26.669Z,18.20
2018-03-02T02:06:30.682Z,19.02
2018-03-02T02:07:34.654Z,19.12
2018-03-02T02:08:38.761Z,18.77
2018-03-02T02:09:42.832Z,19.12
2018-03-02T02:10:46.972Z,19.77
2018-03-02T02:11:50.890Z,18.83
2018-03-02T02:12:54.812Z,19.30
2018-03-02T02:13:59.693Z,18.95
2018-03-02T02:15:03.762Z,18.50
2018-03-02T02:16:08.093Z,18.30
2018-03-02T02:17:11.969Z,19.02
2018-03-02T02:18:15.825Z,19.37
2018-03-02T02:19:20.002Z,18.55
2018-03-02T02:20:23.920Z,19.60
2018-03-02T02:21:27.730Z,19.80
2018-03-02T02:22:32.619Z,19.70
2018-03-02T02:23:36.897Z,18.62
2018-03-02T02:24:41.186Z,19.30
2018-03-02T02:25:46.224Z,19.10
2018-03-02T02:26:50.189Z,20.10
2018-03-02T02:27:55.211Z,18.98
2018-03-02T02:28:59.760Z,19.55
2018-03-02T02:30:04.226Z,19.62
2018-03-02T02:31:08.118Z,19.83
2018-03-02T02:32:12.102Z,19.40
2018-03-02T02:33:16.697Z,18.62
2018-03-02T02:34:20.831Z,20.48
2018-03-02T02:35:24.848Z,19.42
2018-03-02T02:36:28.812Z,19.87
2018-03-02T02:37:32.696Z,20.70
2018-03-02T02:38:36.759Z,19.52
2018-03-02T02:39:40.679Z,18.83
2018-03-02T02:40:44.525Z,19.42
2018-03-02T02:41:49.928Z,19.67
2018-03-02T02:42:53.832Z,20.20
2018-03-02T02:43:57.928Z,18.70
2018-03-02T02:45:02.165Z,18.95
2018-03-02T02:46:06.376Z,19.90
2018-03-02T02:47:11.539Z,19.48
2018-03-02T02:48:15.927Z,20.30
2018-03-02T02:49:20.353Z,18.98
2018-03-02T02:50:24.437Z,19.85
2018-03-02T02:51:29.235Z,18.70
2018-03-02T02:52:35.050Z,18.70
2018-03-02T02:53:39.481Z,18.83
2018-03-02T02:54:45.063Z,19.73
2018-03-02T02:55:49.386Z,20.70
2018-03-02T02:56:53.817Z,19.50
2018-03-02T02:57:58.446Z,20.40
2018-03-02T02:59:02.529Z,19.73
2018-03-02T03:00:06.891Z,20.40
2018-03-02T03:01:12.174Z,20.00
2018-03-02T03:02:16.767Z,19.90
2018-03-02T03:03:20.857Z,20.05
2018-03-02T03:04:25.054Z,20.08
2018-03-02T03:05:29.500Z,19.25
2018-03-02T03:06:34.513Z,19.50
2018-03-02T03:07:39.210Z,19.30
2018-03-02T03:08:43.930Z,19.87
2018-03-02T03:09:48.305Z,20.00
2018-03-02T03:10:53.397Z,25.00
2018-03-02T03:11:58.484Z,35.25
2018-03-02T03:13:03.056Z,21.80
2018-03-02T03:14:07.308Z,20.05
2018-03-02T03:15:11.910Z,20.58
2018-03-02T03:16:15.865Z,19.83
2018-03-02T03:17:20.206Z,20.35
2018-03-02T03:18:24.158Z,19.30
2018-03-02T03:19:28.261Z,19.70
2018-03-02T03:20:32.357Z,20.33
2018-03-02T03:21:36.481Z,20.00
2018-03-02T03:22:40.585Z,23.48
2018-03-02T03:23:44.549Z,25.73
2018-03-02T03:24:48.480Z,22.37
2018-03-02T03:25:52.565Z,22.35
2018-03-02T03:26:56.857Z,21.12
2018-03-02T03:28:00.641Z,20.52
2018-03-02T03:29:04.653Z,19.70
2018-03-02T03:30:08.552Z,21.67
2018-03-02T03:31:12.869Z,19.42
2018-03-02T03:32:18.045Z,20.00
2018-03-02T03:33:23.058Z,20.45
2018-03-02T03:34:28.402Z,20.58
2018-03-02T03:35:33.559Z,20.92
2018-03-02T03:36:37.607Z,21.80
2018-03-02T03:37:42.902Z,29.70
2018-03-02T03:38:47.165Z,23.10
2018-03-02T03:39:51.729Z,23.17
2018-03-02T03:40:56.301Z,24.30
2018-03-02T03:42:00.735Z,22.00
2018-03-02T03:43:05.022Z,21.70
2018-03-02T03:44:10.183Z,19.83
2018-03-02T03:45:14.200Z,21.97
2018-03-02T03:46:18.566Z,20.30
2018-03-02T03:47:22.800Z,20.62
2018-03-02T03:48:26.899Z,19.92
2018-03-02T03:49:31.054Z,21.95
2018-03-02T03:50:35.834Z,21.35
2018-03-02T03:51:41.925Z,20.73
2018-03-02T03:52:46.496Z,21.62
2018-03-02T03:53:50.522Z,21.20
2018-03-02T03:54:55.674Z,19.90
2018-03-02T03:56:01.131Z,21.17
2018-03-02T03:57:05.204Z,21.48
2018-03-02T03:58:09.413Z,20.50
2018-03-02T03:59:14.061Z,21.05
2018-03-02T04:00:18.473Z,20.88
2018-03-02T04:01:23.401Z,21.70
2018-03-02T04:02:27.801Z,21.17
2018-03-02T04:03:32.216Z,19.30
2018-03-02T04:04:36.409Z,20.58
2018-03-02T04:05:40.702Z,20.00
2018-03-02T04:06:45.037Z,20.98
2018-03-02T04:07:49.510Z,21.60
2018-03-02T04:08:53.359Z,21.52
2018-03-02T04:09:57.500Z,21.70
2018-03-02T04:11:01.610Z,21.05
2018-03-02T04:12:05.537Z,21.85
2018-03-02T04:13:09.431Z,20.92
2018-03-02T04:14:13.909Z,20.85
2018-03-02T04:15:18.048Z,20.65
2018-03-02T04:16:21.884Z,19.35
2018-03-02T04:17:25.699Z,21.15
2018-03-02T04:18:30.401Z,21.75
2018-03-02T04:19:35.054Z,20.90
2018-03-02T04:20:38.865Z,21.35
2018-03-02T04:21:43.079Z,21.33
2018-03-02T04:22:47.103Z,21.00
2018-03-02T04:23:51.050Z,20.35
2018-03-02T04:24:54.970Z,20.90
2018-03-02T04:25:58.867Z,22.17
2018-03-02T04:27:02.961Z,22.80
2018-03-02T04:28:07.375Z,22.48
2018-03-02T04:29:11.980Z,20.67
2018-03-02T04:30:16.069Z,21.37
2018-03-02T04:31:20.229Z,21.12
2018-03-02T04:32:25.333Z,20.92
2018-03-02T04:33:29.562Z,20.65
2018-03-02T04:34:34.578Z,20.80
2018-03-02T04:35:39.410Z,20.95
2018-03-02T04:36:43.501Z,21.73
2018-03-02T04:37:47.820Z,21.58
2018-03-02T04:38:52.582Z,22.48
2018-03-02T04:39:56.946Z,20.15
2018-03-02T04:41:00.894Z,20.62
2018-03-02T04:42:04.842Z,21.83
2018-03-02T04:43:09.511Z,22.48
2018-03-02T04:44:13.401Z,21.25
2018-03-02T04:45:17.238Z,20.77
2018-03-02T04:46:21.232Z,20.55
2018-03-02T04:47:25.345Z,21.85
2018-03-02T04:48:29.515Z,22.23
2018-03-02T04:49:33.904Z,22.95
2018-03-02T04:50:37.975Z,21.05
2018-03-02T04:51:42.228Z,20.55
2018-03-02T04:52:46.313Z,21.37
2018-03-02T04:53:50.359Z,21.75
2018-03-02T04:54:54.782Z,22.13
2018-03-02T04:55:59.182Z,22.30
2018-03-02T04:57:03.092Z,21.92
2018-03-02T04:58:08.151Z,22.52
2018-03-02T04:59:12.275Z,21.25
2018-03-02T05:00:16.101Z,22.70
2018-03-02T05:01:20.989Z,22.30
2018-03-02T05:02:25.025Z,21.77
2018-03-02T05:03:28.983Z,19.90
2018-03-02T05:04:33.172Z,21.58
2018-03-02T05:05:37.157Z,21.67
2018-03-02T05:06:41.262Z,21.37
2018-03-02T05:07:45.391Z,21.90
2018-03-02T05:08:49.300Z,21.02
2018-03-02T05:09:53.771Z,21.05
2018-03-02T05:10:57.901Z,22.67
2018-03-02T05:12:01.912Z,21.83
2018-03-02T05:13:05.721Z,22.08
2018-03-02T05:14:09.698Z,22.35
2018-03-02T05:15:14.425Z,22.50
2018-03-02T05:16:18.746Z,20.23
2018-03-02T05:17:22.884Z,22.60
2018-03-02T05:18:27.693Z,22.90
2018-03-02T05:19:32.551Z,21.70
2018-03-02T05:20:36.591Z,21.42
2018-03-02T05:21:40.626Z,22.45
2018-03-02T05:22:44.668Z,22.10
2018-03-02T05:23:49.747Z,21.98
2018-03-02T05:24:54.496Z,22.75
2018-03-02T05:25:58.630Z,21.98
2018-03-02T05:27:03.441Z,20.35
2018-03-02T05:28:08.562Z,22.40
2018-03-02T05:29:12.447Z,21.83
2018-03-02T05:30:16.403Z,22.98
2018-03-02T05:31:20.346Z,21.95
2018-03-02T05:32:26.558Z,22.90
2018-03-02T05:33:31.163Z,23.67
2018-03-02T05:34:36.102Z,23.10
2018-03-02T05:35:40.744Z,21.80
2018-03-02T05:36:44.765Z,22.35
2018-03-02T05:37:48.806Z,21.60
2018-03-02T05:38:53.573Z,22.98
2018-03-02T05:39:57.941Z,21.30
2018-03-02T05:41:02.041Z,22.27
2018-03-02T05:42:07.106Z,21.80
2018-03-02T05:43:11.141Z,21.00
2018-03-02T05:44:15.413Z,22.08
2018-03-02T05:45:19.436Z,21.75
2018-03-02T05:46:23.484Z,22.23
2018-03-02T05:47:28.298Z,23.10
2018-03-02T05:48:32.317Z,22.05
2018-03-02T05:49:36.512Z,23.02
2018-03-02T05:50:40.576Z,23.00
2018-03-02T05:51:44.635Z,22.00
2018-03-02T05:52:48.785Z,22.45
2018-03-02T05:53:54.361Z,23.33
2018-03-02T05:54:58.361Z,22.15
2018-03-02T05:56:02.389Z,21.40
2018-03-02T05:57:06.371Z,23.45
2018-03-02T05:58:10.406Z,22.87
2018-03-02T05:59:14.681Z,21.37
2018-03-02T06:00:18.805Z,22.67
2018-03-02T06:01:22.862Z,22.58
2018-03-02T06:02:26.871Z,21.62
2018-03-02T06:03:30.828Z,24.23
2018-03-02T06:04:35.695Z,22.87
2018-03-02T06:05:43.241Z,21.58
2018-03-02T06:06:48.112Z,23.40
2018-03-02T06:07:52.169Z,22.80
2018-03-02T06:08:56.190Z,22.52
2018-03-02T06:10:00.414Z,22.92
2018-03-02T06:11:04.468Z,22.52
2018-03-02T06:12:09.567Z,23.05
2018-03-02T06:13:13.539Z,23.02
2018-03-02T06:14:17.508Z,22.58
2018-03-02T06:15:21.451Z,23.35
2018-03-02T06:16:25.506Z,22.92
2018-03-02T06:17:29.370Z,23.15
2018-03-02T06:18:34.466Z,25.27
2018-03-02T06:19:38.278Z,24.77
2018-03-02T06:20:42.109Z,22.25
2018-03-02T06:21:45.999Z,21.60
2018-03-02T06:22:50.948Z,23.40
2018-03-02T06:23:54.956Z,23.35
2018-03-02T06:24:59.437Z,22.70
2018-03-02T06:26:04.253Z,22.85
2018-03-02T06:27:09.014Z,22.62
2018-03-02T06:28:13.013Z,23.55
2018-03-02T06:29:17.032Z,24.42
2018-03-02T06:30:21.057Z,25.45
2018-03-02T06:31:25.877Z,23.97
2018-03-02T06:32:29.847Z,22.83
2018-03-02T06:33:33.800Z,23.05
2018-03-02T06:34:38.426Z,23.50
2018-03-02T06:35:42.241Z,23.77
2018-03-02T06:36:46.332Z,23.12
2018-03-02T06:37:50.243Z,23.43
2018-03-02T06:38:54.164Z,23.83
2018-03-02T06:39:58.088Z,22.95
2018-03-02T06:41:06.458Z,21.75
2018-03-02T06:42:11.136Z,23.40
2018-03-02T06:43:15.280Z,24.40
2018-03-02T06:44:19.372Z,22.58
2018-03-02T06:45:23.408Z,23.50
2018-03-02T06:46:28.236Z,22.90
2018-03-02T06:47:33.269Z,23.85
2018-03-02T06:48:39.982Z,23.62
2018-03-02T06:51:01.558Z,24.33
2018-03-02T06:52:07.891Z,23.90
2018-03-02T06:53:12.831Z,23.55
2018-03-02T06:54:17.055Z,23.17
2018-03-02T06:55:21.070Z,25.70
2018-03-02T06:56:25.107Z,24.05
2018-03-02T06:57:29.177Z,24.25
2018-03-02T06:58:33.168Z,22.40
2018-03-02T06:59:37.466Z,24.30
2018-03-02T07:00:41.381Z,22.98
2018-03-02T07:01:45.253Z,24.33
2018-03-02T07:02:49.321Z,24.40
2018-03-02T07:03:54.146Z,25.67
2018-03-02T07:04:58.808Z,25.98
2018-03-02T07:06:02.951Z,24.70
2018-03-02T07:07:06.785Z,26.05
2018-03-02T07:08:10.689Z,25.25
2018-03-02T07:09:14.532Z,25.10
2018-03-02T07:10:18.441Z,23.33
2018-03-02T07:11:22.748Z,23.35
2018-03-02T07:12:26.879Z,25.05
2018-03-02T07:13:30.807Z,23.50
2018-03-02T07:14:34.721Z,26.65
2018-03-02T07:15:38.552Z,25.10
2018-03-02T07:16:43.306Z,24.90
2018-03-02T07:17:47.434Z,23.12
2018-03-02T07:18:51.351Z,24.80
2018-03-02T07:19:55.197Z,23.27
2018-03-02T07:20:59.280Z,22.00
2018-03-02T07:22:03.448Z,24.15
2018-03-02T07:23:07.273Z,23.35
2018-03-02T07:24:12.187Z,24.12
2018-03-02T07:25:16.792Z,22.37
2018-03-02T07:26:20.678Z,22.08
2018-03-02T07:27:24.593Z,23.60
2018-03-02T07:28:29.253Z,22.98
2018-03-02T07:29:33.629Z,23.92
2018-03-02T07:30:38.522Z,22.93
2018-03-02T07:31:42.668Z,24.48
2018-03-02T07:32:46.584Z,27.20
2018-03-02T07:33:50.420Z,25.65
2018-03-02T07:34:54.268Z,24.23
2018-03-02T07:35:58.396Z,23.98
2018-03-02T07:37:02.301Z,24.27
2018-03-02T07:38:06.071Z,24.92
2018-03-02T07:39:10.076Z,25.02
2018-03-02T07:40:14.191Z,23.93
2018-03-02T07:41:18.271Z,23.62
2018-03-02T07:42:22.590Z,24.15
2018-03-02T07:43:26.782Z,25.75
2018-03-02T07:44:30.767Z,26.58
2018-03-02T07:45:34.787Z,24.73
2018-03-02T07:46:38.773Z,23.67
2018-03-02T07:47:43.092Z,24.73
2018-03-02T07:48:47.037Z,23.10
2018-03-02T07:49:50.873Z,25.08
2018-03-02T07:50:54.735Z,25.35
2018-03-02T07:51:59.416Z,24.00
2018-03-02T07:53:03.315Z,24.40
2018-03-02T07:54:07.442Z,24.77
2018-03-02T07:55:11.269Z,26.20
2018-03-02T07:56:15.146Z,25.73
2018-03-02T07:57:19.057Z,24.27
2018-03-02T07:58:24.651Z,25.42
2018-03-02T07:59:28.735Z,27.62
2018-03-02T08:00:32.998Z,26.83
2018-03-02T08:01:37.897Z,27.00
2018-03-02T08:02:42.726Z,24.63
2018-03-02T08:03:47.532Z,25.98
2018-03-02T08:04:51.500Z,24.55
2018-03-02T08:05:55.746Z,23.92
2018-03-02T08:07:00.546Z,22.85
2018-03-02T08:08:04.695Z,25.83
2018-03-02T08:09:09.578Z,25.12
2018-03-02T08:10:13.418Z,22.98
2018-03-02T08:11:17.324Z,24.37
2018-03-02T08:12:21.552Z,24.00
2018-03-02T08:13:25.456Z,24.90
2018-03-02T08:14:29.264Z,24.40
2018-03-02T08:15:33.097Z,28.30
2018-03-02T08:16:37.002Z,27.92
2018-03-02T08:17:40.822Z,23.80
2018-03-02T08:18:44.970Z,23.55
2018-03-02T08:19:49.665Z,24.50
2018-03-02T08:20:53.479Z,23.50
2018-03-02T08:21:57.557Z,23.50
2018-03-02T08:23:01.634Z,24.10
2018-03-02T08:24:05.810Z,22.83
2018-03-02T08:25:10.148Z,25.52
2018-03-02T08:26:14.164Z,23.42
2018-03-02T08:27:18.266Z,24.37
2018-03-02T08:28:22.437Z,23.58
2018-03-02T08:29:26.464Z,24.17
2018-03-02T08:30:30.550Z,24.60
2018-03-02T08:31:34.585Z,24.90
2018-03-02T08:32:38.719Z,22.98
2018-03-02T08:33:43.153Z,23.33
2018-03-02T08:34:46.965Z,26.23
2018-03-02T08:35:50.815Z,24.52
2018-03-02T08:36:55.752Z,24.15
2018-03-02T08:37:59.940Z,23.77
2018-03-02T08:39:05.273Z,25.58
2018-03-02T08:40:10.087Z,25.48
2018-03-02T08:41:14.932Z,25.37
2018-03-02T08:42:19.985Z,24.15
2018-03-02T08:43:24.066Z,24.20
2018-03-02T08:44:28.096Z,24.98
2018-03-02T08:45:32.166Z,24.42
2018-03-02T08:46:37.345Z,25.08
2018-03-02T08:47:41.340Z,24.25
2018-03-02T08:48:46.106Z,24.33
2018-03-02T08:49:50.142Z,24.37
2018-03-02T08:50:54.784Z,24.70
2018-03-02T08:51:59.647Z,24.98
2018-03-02T08:53:03.729Z,23.97
2018-03-02T08:54:07.897Z,25.93
2018-03-02T08:55:12.346Z,24.52
2018-03-02T08:56:16.542Z,23.83
2018-03-02T08:57:21.293Z,24.37
2018-03-02T08:58:25.366Z,25.37
2018-03-02T08:59:29.352Z,24.95
2018-03-02T09:00:34.437Z,24.12
2018-03-02T09:01:39.184Z,24.75
2018-03-02T09:02:43.903Z,25.75
2018-03-02T09:03:48.025Z,23.70
2018-03-02T09:04:52.912Z,24.17
2018-03-02T09:05:57.189Z,25.25
2018-03-02T09:07:01.582Z,25.10
2018-03-02T09:08:05.686Z,23.92
2018-03-02T09:09:09.726Z,24.87
2018-03-02T09:10:13.899Z,25.48
2018-03-02T09:11:17.959Z,24.25
2018-03-02T09:12:22.802Z,26.00
2018-03-02T09:13:27.200Z,25.00
2018-03-02T09:14:31.932Z,24.85
2018-03-02T09:15:35.995Z,25.25
2018-03-02T09:16:40.037Z,24.52
2018-03-02T09:17:44.056Z,22.75
2018-03-02T09:18:48.048Z,25.37
2018-03-02T09:19:52.052Z,25.80
2018-03-02T09:20:55.954Z,26.12
2018-03-02T09:21:59.838Z,25.10
2018-03-02T09:23:03.894Z,25.25
2018-03-02T09:24:08.598Z,26.55
2018-03-02T09:25:12.490Z,26.00
2018-03-02T09:26:17.187Z,25.48
2018-03-02T09:27:22.078Z,25.60
2018-03-02T09:28:26.713Z,25.60
2018-03-02T09:29:30.567Z,25.70
2018-03-02T09:30:35.411Z,24.02
2018-03-02T09:31:39.441Z,24.35
2018-03-02T09:32:43.652Z,25.12
2018-03-02T09:33:47.479Z,23.15
2018-03-02T09:34:52.226Z,26.05
2018-03-02T09:35:56.129Z,24.80
2018-03-02T09:36:59.928Z,24.90
2018-03-02T09:38:03.866Z,25.62
2018-03-02T09:39:07.768Z,25.90
2018-03-02T09:40:11.774Z,24.50
2018-03-02T09:41:15.824Z,25.50
2018-03-02T09:42:19.658Z,25.20
2018-03-02T09:43:23.814Z,24.92
2018-03-02T09:44:27.762Z,26.45
2018-03-02T09:45:33.321Z,26.00
2018-03-02T09:46:38.017Z,24.73
2018-03-02T09:47:41.966Z,24.05
2018-03-02T09:48:45.921Z,25.10
2018-03-02T09:49:50.341Z,26.05
2018-03-02T09:50:55.604Z,24.00
2018-03-02T09:51:59.599Z,26.02
2018-03-02T09:53:03.700Z,24.55
2018-03-02T09:54:08.428Z,24.10
2018-03-02T09:55:12.760Z,25.07
2018-03-02T09:56:16.836Z,25.85
2018-03-02T09:57:21.084Z,24.77
2018-03-02T09:58:26.036Z,23.30
2018-03-02T09:59:30.828Z,24.60
2018-03-02T10:00:35.422Z,24.37
2018-03-02T10:01:39.755Z,24.25
2018-03-02T10:02:43.604Z,24.37
2018-03-02T10:03:47.506Z,23.70
2018-03-02T10:04:52.306Z,23.95
2018-03-02T10:05:56.689Z,24.75
2018-03-02T10:07:00.832Z,25.00
2018-03-02T10:08:05.263Z,24.92
2018-03-02T10:09:10.116Z,24.85
2018-03-02T10:10:14.960Z,24.92
2018-03-02T10:11:19.681Z,25.40
2018-03-02T10:12:23.637Z,23.95
2018-03-02T10:13:28.050Z,25.00
2018-03-02T10:14:32.202Z,24.80
2018-03-02T10:15:37.157Z,25.45
2018-03-02T10:16:42.423Z,25.23
2018-03-02T10:17:47.261Z,25.58
2018-03-02T10:18:51.360Z,25.00
2018-03-02T10:19:55.844Z,25.80
2018-03-02T10:20:59.964Z,25.52
2018-03-02T10:22:04.852Z,24.12
2018-03-02T10:23:08.909Z,26.05
2018-03-02T10:24:15.415Z,25.05
2018-03-02T10:25:19.905Z,24.77
2018-03-02T10:26:24.011Z,25.30
2018-03-02T10:27:29.063Z,26.37
2018-03-02T10:28:33.205Z,25.17
2018-03-02T10:29:37.304Z,23.83
2018-03-02T10:30:41.404Z,25.67
2018-03-02T10:31:45.651Z,27.25
2018-03-02T10:32:49.607Z,25.25
2018-03-02T10:33:54.494Z,24.85
2018-03-02T10:34:58.607Z,24.95
2018-03-02T10:36:03.600Z,25.50
2018-03-02T10:37:07.572Z,24.80
2018-03-02T10:38:11.744Z,23.80
2018-03-02T10:39:16.550Z,25.58
2018-03-02T10:40:21.256Z,24.98
2018-03-02T10:41:25.917Z,25.58
2018-03-02T10:42:30.292Z,25.58
2018-03-02T10:43:34.983Z,25.88
2018-03-02T10:44:38.988Z,25.10
2018-03-02T10:45:42.910Z,24.75
2018-03-02T10:46:47.607Z,26.05
2018-03-02T10:47:51.505Z,26.30
2018-03-02T10:48:55.440Z,25.08
2018-03-02T10:49:59.998Z,25.33
2018-03-02T10:51:03.908Z,24.52
2018-03-02T10:52:08.165Z,26.60
2018-03-02T10:53:12.193Z,26.00
2018-03-02T10:54:16.300Z,26.12
2018-03-02T10:55:20.378Z,26.58
2018-03-02T10:56:24.788Z,28.55
2018-03-02T10:57:29.517Z,25.60
2018-03-02T10:58:33.577Z,26.00
2018-03-02T10:59:38.436Z,25.58
2018-03-02T11:00:46.673Z,26.87
2018-03-02T11:01:54.781Z,26.48
2018-03-02T11:02:58.841Z,29.00
2018-03-02T11:04:03.085Z,28.55
2018-03-02T11:05:11.087Z,25.30
2018-03-02T11:06:15.904Z,25.08
2018-03-02T11:07:20.686Z,26.42
2018-03-02T11:08:25.116Z,26.52
2018-03-02T11:09:29.413Z,25.48
2018-03-02T11:10:33.562Z,25.30
2018-03-02T11:11:37.664Z,24.87
2018-03-02T11:12:41.823Z,25.95
2018-03-02T11:13:45.890Z,25.95
2018-03-02T11:14:50.066Z,26.15
2018-03-02T11:15:53.984Z,26.70
2018-03-02T11:16:57.936Z,26.30
2018-03-02T11:18:01.924Z,26.08
2018-03-02T11:19:06.342Z,25.65
2018-03-02T11:20:11.542Z,26.67
2018-03-02T11:21:15.978Z,26.73
2018-03-02T11:22:20.097Z,26.08
2018-03-02T11:23:25.047Z,26.80
2018-03-02T11:24:29.111Z,27.70
2018-03-02T11:25:34.159Z,26.70
2018-03-02T11:26:38.260Z,26.83
2018-03-02T11:27:42.351Z,26.75
2018-03-02T11:28:47.235Z,26.27
2018-03-02T11:29:51.321Z,25.60
2018-03-02T11:30:55.518Z,26.77
2018-03-02T11:31:59.605Z,25.20
2018-03-02T11:33:03.812Z,26.33
2018-03-02T11:34:08.233Z,26.10
2018-03-02T11:35:12.278Z,27.30
2018-03-02T11:36:17.037Z,27.52
2018-03-02T11:37:21.117Z,26.70
2018-03-02T11:38:26.033Z,27.40
2018-03-02T11:39:30.889Z,26.30
2018-03-02T11:40:35.192Z,26.02
2018-03-02T11:41:39.397Z,26.67
2018-03-02T11:42:43.289Z,25.92
2018-03-02T11:43:47.268Z,26.35
2018-03-02T11:44:51.127Z,25.85
2018-03-02T11:45:55.035Z,26.25
2018-03-02T11:46:59.267Z,25.52
2018-03-02T11:48:03.217Z,25.30
2018-03-02T11:49:07.141Z,24.20
2018-03-02T11:50:11.103Z,24.30
2018-03-02T11:51:14.966Z,24.42
2018-03-02T11:52:18.910Z,25.73
2018-03-02T11:53:23.339Z,25.70
2018-03-02T11:54:27.407Z,25.33
2018-03-02T11:55:31.515Z,26.27
2018-03-02T11:56:35.578Z,28.05
2018-03-02T11:57:39.404Z,30.40
2018-03-02T11:58:43.583Z,29.73
2018-03-02T11:59:47.544Z,23.87
2018-03-02T12:00:52.172Z,24.20
2018-03-02T12:01:56.814Z,25.37
2018-03-02T12:03:01.450Z,25.50
2018-03-02T12:04:05.292Z,24.95
2018-03-02T12:05:10.524Z,24.20
2018-03-02T12:06:15.462Z,25.62
2018-03-02T12:07:19.346Z,25.40
2018-03-02T12:08:24.014Z,26.05
2018-03-02T12:09:28.656Z,25.08
2018-03-02T12:10:32.634Z,25.00
2018-03-02T12:11:36.527Z,25.60
2018-03-02T12:12:40.360Z,24.10
2018-03-02T12:13:44.952Z,25.80
2018-03-02T12:14:48.804Z,25.65
2018-03-02T12:15:52.748Z,25.60
2018-03-02T12:16:56.808Z,25.33
2018-03-02T12:18:00.592Z,25.37
2018-03-02T12:19:04.432Z,24.90
2018-03-02T12:20:08.289Z,25.77
2018-03-02T12:21:12.189Z,26.08
2018-03-02T12:22:16.040Z,27.60
2018-03-02T12:23:20.166Z,28.05
2018-03-02T12:24:24.923Z,26.45
2018-03-02T12:25:29.025Z,26.95
2018-03-02T12:26:33.169Z,27.05
2018-03-02T12:27:37.949Z,25.70
2018-03-02T12:28:42.105Z,26.62
2018-03-02T12:29:47.286Z,24.12
2018-03-02T12:30:51.550Z,23.87
2018-03-02T12:31:55.518Z,24.52
2018-03-02T12:32:59.545Z,24.60
2018-03-02T12:34:03.544Z,24.08
2018-03-02T12:35:08.747Z,25.85
2018-03-02T12:36:12.764Z,24.30
2018-03-02T12:37:23.038Z,24.20
2018-03-02T12:38:26.925Z,28.27
2018-03-02T12:39:30.829Z,27.10
2018-03-02T12:40:34.716Z,24.92
2018-03-02T12:41:38.817Z,24.65
2018-03-02T12:42:42.952Z,23.75
2018-03-02T12:43:47.062Z,23.90
2018-03-02T12:44:51.230Z,24.20
2018-03-02T12:45:55.338Z,25.45
2018-03-02T12:46:59.629Z,26.37
2018-03-02T12:48:04.561Z,26.58
2018-03-02T12:49:09.109Z,25.95
2018-03-02T12:50:13.257Z,24.42
2018-03-02T12:51:17.141Z,25.95
2018-03-02T12:52:21.082Z,25.33
2018-03-02T12:53:25.667Z,24.12
2018-03-02T12:54:30.370Z,25.40
2018-03-02T12:55:35.467Z,26.45
2018-03-02T12:56:39.556Z,26.10
2018-03-02T12:57:44.072Z,26.30
2018-03-02T12:58:48.173Z,27.77
2018-03-02T12:59:52.508Z,25.50
2018-03-02T13:03:03.260Z,25.55
2018-03-02T13:04:07.397Z,25.95
2018-03-02T13:05:12.070Z,24.83
2018-03-02T13:06:16.102Z,26.10
2018-03-02T13:07:21.303Z,25.85
2018-03-02T13:08:25.479Z,24.87
2018-03-02T13:09:29.491Z,26.52
2018-03-02T13:10:33.675Z,26.27
2018-03-02T13:11:38.083Z,24.70
2018-03-02T13:12:42.126Z,26.05
2018-03-02T13:13:46.121Z,25.90
2018-03-02T13:14:50.174Z,26.83
2018-03-02T13:15:54.774Z,26.17
2018-03-02T13:16:59.432Z,25.85
2018-03-02T13:18:03.659Z,25.10
2018-03-02T13:19:08.260Z,28.08
2018-03-02T13:20:12.168Z,29.85
2018-03-02T13:21:15.996Z,27.70
2018-03-02T13:22:29.531Z,27.70
2018-03-02T13:23:34.432Z,26.58
2018-03-02T13:24:38.427Z,26.35
2018-03-02T13:25:42.283Z,26.55
2018-03-02T13:29:01.806Z,27.05
2018-03-02T13:30:06.715Z,26.35
2018-03-02T13:31:12.790Z,25.80
2018-03-02T13:32:18.635Z,26.10
2018-03-02T13:35:30.946Z,28.90
2018-03-02T13:36:36.525Z,26.40
2018-03-02T13:37:40.572Z,25.90
2018-03-02T13:38:45.360Z,26.73
2018-03-02T13:42:01.321Z,25.85
2018-03-02T13:43:05.309Z,25.90
2018-03-02T13:44:09.353Z,27.52
2018-03-02T13:45:13.228Z,27.00
2018-03-02T13:46:17.160Z,26.45
2018-03-02T13:47:21.074Z,25.80
2018-03-02T13:48:37.017Z,26.35
2018-03-02T13:50:02.931Z,27.15
2018-03-02T13:51:06.884Z,25.70
2018-03-02T13:52:11.510Z,27.05
2018-03-02T13:53:15.504Z,26.50
2018-03-02T13:54:19.355Z,27.58
2018-03-02T13:55:23.279Z,27.00
2018-03-02T13:56:36.774Z,25.23
2018-03-02T13:57:53.484Z,26.48
2018-03-02T13:58:57.596Z,28.20
2018-03-02T14:00:02.518Z,27.35